Time;durP1;ratioP1;P1;durP2;ratioP2;P2;SDS_P1;SDS_P2;PMS_P1;PMS_P2;Temp;Humidity;BMP_temperature;BMP_pressure;BME280_temperature;BME280_humidity;BME280_pressure;Samples;Min_cycle;Max_cycle;Signal;HPM_P1;HPM_P2
2023/04/18 00:00:15;;;;;;;;;;;;;;;8.52;100.00;96276.53;5103682;28;19973;-88
2023/04/18 00:02:42;;;;;;;;;;;;;;;8.52;100.00;96271.97;5103002;28;19951;-87
2023/04/18 00:05:11;;;;;;;;;;;;;;;8.54;100.00;96269.91;5102629;28;19952;-86
2023/04/18 00:07:38;;;;;;;;;;;;;;;8.55;100.00;96273.41;5103015;28;19993;-87
2023/04/18 00:10:05;;;;;;;;;;;;;;;8.53;100.00;96267.41;5103167;28;19935;-87
2023/04/18 00:12:35;;;;;;;;;;;;;;;8.55;100.00;96260.78;5092462;28;19946;-88
2023/04/18 00:15:02;;;;;;;;;;;;;;;8.56;100.00;96264.28;5101600;28;19928;-87
2023/04/18 00:17:29;;;;;;;;;;;;;;;8.52;100.00;96253.13;5102482;28;20097;-87
2023/04/18 00:19:57;;;;;;;;;;;;;;;8.47;100.00;96257.53;5102003;28;19943;-87
2023/04/18 00:22:24;;;;;;;;;;;;;;;8.46;100.00;96250.50;5100184;28;19984;-86
2023/04/18 00:24:51;;;;;;;;;;;;;;;8.47;100.00;96252.97;5104468;28;20037;-86
2023/04/18 00:27:19;;;;;;;;;;;;;;;8.50;100.00;96252.56;5101302;28;19954;-86
2023/04/18 00:29:47;;;;;;;;;;;;;;;8.48;100.00;96249.25;5104664;28;20070;-86
2023/04/18 00:32:16;;;;;;;;;;;;;;;8.40;100.00;96252.22;5101292;28;20018;-87
2023/04/18 00:34:43;;;;;;;;;;;;;;;8.30;100.00;96241.91;5103928;28;19928;-87
2023/04/18 00:37:12;;;;;;;;;;;;;;;8.27;100.00;96245.03;5113048;27;19940;-87
2023/04/18 00:39:39;;;;;;;;;;;;;;;8.31;100.00;96243.59;5101667;28;19976;-86
2023/04/18 00:42:06;;;;;;;;;;;;;;;8.31;100.00;96242.75;5095208;28;19943;-86
2023/04/18 00:44:33;;;;;;;;;;;;;;;8.26;100.00;96250.63;5104338;28;19932;-86
2023/04/18 00:47:01;;;;;;;;;;;;;;;8.21;100.00;96245.06;5096779;28;19923;-87
2023/04/18 00:49:28;;;;;;;;;;;;;;;8.16;100.00;96245.75;5103016;28;19931;-87
2023/04/18 00:51:55;;;;;;;;;;;;;;;8.11;100.00;96245.56;5096649;28;19928;-87
2023/04/18 00:54:24;;;;;;;;;;;;;;;8.08;100.00;96245.97;5103502;28;19959;-86
2023/04/18 00:56:51;;;;;;;;;;;;;;;8.06;100.00;96242.69;5103668;28;19967;-86
2023/04/18 00:59:19;;;;;;;;;;;;;;;8.08;100.00;96237.13;5104660;28;19931;-87
2023/04/18 01:01:46;;;;;;;;;;;;;;;8.11;100.00;96233.97;5106819;28;19935;-86
2023/04/18 01:04:14;;;;;;;;;;;;;;;8.14;100.00;96236.22;5105894;28;19928;-87
2023/04/18 01:06:42;;;;;;;;;;;;;;;8.14;100.00;96236.22;5106024;28;19928;-87
2023/04/18 01:09:09;;;;;;;;;;;;;;;8.15;100.00;96238.72;5117130;27;19932;-87
2023/04/18 01:11:36;;;;;;;;;;;;;;;8.14;100.00;96237.06;5103975;28;19928;-87
2023/04/18 01:14:04;;;;;;;;;;;;;;;8.06;100.00;96239.19;5109600;28;19931;-86
2023/04/18 01:16:32;;;;;;;;;;;;;;;7.97;100.00;96239.44;5105768;28;19962;-87
2023/04/18 01:18:59;;;;;;;;;;;;;;;7.92;100.00;96239.25;5104500;28;19950;-86
2023/04/18 01:21:30;;;;;;;;;;;;;;;7.94;100.00;96242.56;5105432;28;19931;-87
2023/04/18 01:24:00;;;;;;;;;;;;;;;7.99;100.00;96242.72;5103773;28;19962;-86
2023/04/18 01:26:28;;;;;;;;;;;;;;;8.06;100.00;96240.00;5108511;28;19948;-86
2023/04/18 01:28:56;;;;;;;;;;;;;;;8.12;100.00;96244.50;5105467;28;20862;-86
2023/04/18 01:31:23;;;;;;;;;;;;;;;8.15;100.00;96232.50;5106770;28;19967;-86
2023/04/18 01:33:49;;;;;;;;;;;;;;;8.18;100.00;96237.44;5107498;28;19964;-87
2023/04/18 01:36:16;;;;;;;;;;;;;;;8.21;100.00;96232.44;5103366;28;20043;-86
2023/04/18 01:38:43;;;;;;;;;;;;;;;8.19;100.00;96229.16;5108038;28;19954;-87
2023/04/18 01:41:09;;;;;;;;;;;;;;;8.22;100.00;96236.78;5107418;28;19991;-86
2023/04/18 01:43:38;;;;;;;;;;;;;;;8.16;100.00;96234.97;5097043;28;20032;-87
2023/04/18 01:46:05;;;;;;;;;;;;;;;8.13;100.00;96229.22;5106562;28;19959;-86
2023/04/18 01:48:32;;;;;;;;;;;;;;;8.11;100.00;96215.97;5104854;28;19970;-86
2023/04/18 01:54:02;;;;;;;;;;;;;;;8.20;100.00;96220.03;5108307;28;19923;-86
2023/04/18 01:56:31;;;;;;;;;;;;;;;8.09;100.00;96226.13;5107125;28;19931;-86
2023/04/18 01:59:00;;;;;;;;;;;;;;;7.99;100.00;96233.84;5103478;28;19963;-87
2023/04/18 02:01:28;;;;;;;;;;;;;;;7.93;100.00;96223.94;5098559;28;19978;-87
2023/04/18 02:03:54;;;;;;;;;;;;;;;7.87;100.00;96228.34;5107792;28;19948;-87
2023/04/18 02:06:21;;;;;;;;;;;;;;;7.80;100.00;96222.19;5107203;28;19931;-88
2023/04/18 02:08:48;;;;;;;;;;;;;;;7.75;100.00;96227.38;5108388;28;19936;-87
2023/04/18 02:11:15;;;;;;;;;;;;;;;7.73;100.00;96220.56;5105185;28;19932;-86
2023/04/18 02:13:41;;;;;;;;;;;;;;;7.70;100.00;96221.00;5104033;28;19924;-86
2023/04/18 02:16:12;;;;;;;;;;;;;;;7.63;100.00;96218.34;5102783;28;19932;-87
2023/04/18 02:18:43;;;;;;;;;;;;;;;7.58;100.00;96220.84;5104967;28;19951;-87
2023/04/18 02:21:10;;;;;;;;;;;;;;;7.47;100.00;96222.34;5104284;28;19932;-87
2023/04/18 02:23:36;;;;;;;;;;;;;;;7.41;100.00;96217.81;5106008;28;20065;-87
2023/04/18 02:26:03;;;;;;;;;;;;;;;7.37;100.00;96221.16;5101148;28;19961;-86
2023/04/18 02:28:30;;;;;;;;;;;;;;;7.30;100.00;96218.50;5102157;28;19924;-87
2023/04/18 02:30:59;;;;;;;;;;;;;;;7.35;100.00;96225.91;5104242;28;19971;-87
2023/04/18 02:33:28;;;;;;;;;;;;;;;7.34;100.00;96216.19;5122678;27;20468;-86
2023/04/18 02:35:54;;;;;;;;;;;;;;;7.33;100.00;96217.22;5097072;28;20039;-86
2023/04/18 02:38:21;;;;;;;;;;;;;;;7.34;100.00;96218.88;5102811;28;19931;-86
2023/04/18 02:40:51;;;;;;;;;;;;;;;7.35;100.00;96213.31;5105716;28;20078;-87
2023/04/18 02:43:20;;;;;;;;;;;;;;;7.38;100.00;96223.63;5103958;28;19934;-87
2023/04/18 02:45:47;;;;;;;;;;;;;;;7.36;100.00;96214.97;5104124;28;19984;-87
2023/04/18 02:48:14;;;;;;;;;;;;;;;7.35;100.00;96213.31;5103332;27;19932;-86
2023/04/18 02:50:42;;;;;;;;;;;;;;;7.36;100.00;96211.44;5104203;28;20062;-87
2023/04/18 02:53:09;;;;;;;;;;;;;;;7.33;100.00;96220.75;5104400;28;19947;-86
2023/04/18 02:55:50;;;;;;;;;;;;;;;7.34;100.00;96219.72;5099298;28;19927;-86
2023/04/18 02:58:18;;;;;;;;;;;;;;;7.32;100.00;96218.28;5106295;28;19924;-88
2023/04/18 03:01:13;;;;;;;;;;;;;;;7.31;100.00;96224.72;5103464;28;20019;-86
2023/04/18 03:03:53;;;;;;;;;;;;;;;7.32;100.00;96221.78;5099991;28;19939;-86
2023/04/18 03:06:38;;;;;;;;;;;;;;;7.37;100.00;96218.47;5103335;28;19972;-86
2023/04/18 03:09:07;;;;;;;;;;;;;;;7.38;100.00;96218.28;5117558;27;19931;-87
2023/04/18 03:11:37;;;;;;;;;;;;;;;7.44;100.00;96217.41;5096307;28;19939;-87
2023/04/18 03:14:05;;;;;;;;;;;;;;;7.52;100.00;96222.53;5119232;27;19927;-86
2023/04/18 03:16:42;;;;;;;;;;;;;;;7.57;100.00;96214.63;5104808;28;19971;-86
2023/04/18 03:19:13;;;;;;;;;;;;;;;7.61;100.00;96220.41;5105021;28;19931;-87
2023/04/18 03:21:42;;;;;;;;;;;;;;;7.57;100.00;96214.63;5103612;28;19950;-86
2023/04/18 03:24:10;;;;;;;;;;;;;;;7.57;100.00;96224.59;5105221;28;19932;-86
2023/04/18 03:26:37;;;;;;;;;;;;;;;7.54;100.00;96222.31;5104509;28;19924;-86
2023/04/18 03:29:05;;;;;;;;;;;;;;;7.54;100.00;96227.69;5104370;28;19958;-87
2023/04/18 03:31:32;;;;;;;;;;;;;;;7.51;100.00;96231.63;5104345;28;19993;-87
2023/04/18 03:33:59;;;;;;;;;;;;;;;7.44;100.00;96227.31;5103521;28;19935;-86
2023/04/18 03:36:27;;;;;;;;;;;;;;;7.38;100.00;96226.31;5105876;28;19958;-87
2023/04/18 03:38:56;;;;;;;;;;;;;;;7.36;100.00;96231.09;5103791;28;19999;-87
2023/04/18 03:41:24;;;;;;;;;;;;;;;7.38;100.00;96230.88;5120294;27;19939;-86
2023/04/18 03:43:51;;;;;;;;;;;;;;;7.39;100.00;96230.66;5102307;28;19931;-87
2023/04/18 03:46:17;;;;;;;;;;;;;;;7.38;100.00;96231.69;5104467;27;19939;-87
2023/04/18 03:48:45;;;;;;;;;;;;;;;7.36;100.00;96239.13;5105411;28;19984;-86
2023/04/18 03:51:14;;;;;;;;;;;;;;;7.23;100.00;96223.88;5103744;28;19931;-86
2023/04/18 03:53:41;;;;;;;;;;;;;;;7.16;100.00;96233.00;5115154;27;19953;-86
2023/04/18 03:56:09;;;;;;;;;;;;;;;7.12;100.00;96232.63;5097333;27;19938;-86
2023/04/18 03:58:52;;;;;;;;;;;;;;;7.11;100.00;96230.97;5102528;28;19927;-86
2023/04/18 04:01:21;;;;;;;;;;;;;;;7.08;100.00;96233.22;5100700;28;19939;-86
2023/04/18 04:03:47;;;;;;;;;;;;;;;7.08;100.00;96225.19;5102030;28;19962;-87
2023/04/18 04:06:14;;;;;;;;;;;;;;;7.12;100.00;96226.41;5092784;28;19974;-87
2023/04/18 04:08:41;;;;;;;;;;;;;;;7.15;100.00;96232.16;5105287;28;19924;-86
2023/04/18 04:11:10;;;;;;;;;;;;;;;7.18;100.00;96241.69;5099997;28;19955;-87
2023/04/18 04:13:37;;;;;;;;;;;;;;;7.16;100.00;96227.63;5103245;28;19928;-86
2023/04/18 04:16:05;;;;;;;;;;;;;;;7.17;100.00;96229.28;5121358;27;19924;-86
2023/04/18 04:18:32;;;;;;;;;;;;;;;7.11;100.00;96233.66;5103413;28;19928;-87
2023/04/18 04:21:01;;;;;;;;;;;;;;;7.08;100.00;96236.75;5103934;28;19924;-86
2023/04/18 04:23:41;;;;;;;;;;;;;;;7.05;100.00;96236.38;5102320;28;19934;-87
2023/04/18 04:26:13;;;;;;;;;;;;;;;7.01;100.00;96238.63;5094658;28;19928;-86
2023/04/18 04:28:47;;;;;;;;;;;;;;;7.00;100.00;96233.47;5098039;27;19935;-87
2023/04/18 04:31:18;;;;;;;;;;;;;;;6.92;100.00;96237.19;5101269;28;19924;-86
2023/04/18 04:33:45;;;;;;;;;;;;;;;6.89;100.00;96242.97;5099493;28;19934;-86
2023/04/18 04:36:17;;;;;;;;;;;;;;;6.90;100.00;96244.63;5115386;27;19940;-88
2023/04/18 04:38:46;;;;;;;;;;;;;;;6.96;100.00;96238.44;5100978;28;19931;-86
2023/04/18 04:41:14;;;;;;;;;;;;;;;7.03;100.00;96246.47;5103567;28;19928;-87
2023/04/18 04:43:41;;;;;;;;;;;;;;;7.03;100.00;96244.63;5103284;28;19938;-86
2023/04/18 04:46:12;;;;;;;;;;;;;;;7.01;100.00;96240.47;5104674;28;19927;-87
2023/04/18 04:48:39;;;;;;;;;;;;;;;6.93;100.00;96248.75;5100835;28;19931;-87
2023/04/18 04:51:06;;;;;;;;;;;;;;;6.87;100.00;96255.81;5101006;28;19931;-86
2023/04/18 04:53:33;;;;;;;;;;;;;;;6.93;100.00;96246.09;5101867;28;20035;-87
2023/04/18 04:56:03;;;;;;;;;;;;;;;6.99;100.00;96258.66;5103362;28;19936;-88
2023/04/18 04:58:32;;;;;;;;;;;;;;;6.96;100.00;96261.78;5104115;28;19979;-88
2023/04/18 05:01:07;;;;;;;;;;;;;;;6.92;100.00;96255.16;5104405;28;19928;-88
2023/04/18 05:03:36;;;;;;;;;;;;;;;6.97;100.00;96260.75;5101135;28;19987;-86
2023/04/18 05:06:04;;;;;;;;;;;;;;;7.03;100.00;96259.91;5096092;28;19960;-86
2023/04/18 05:08:31;;;;;;;;;;;;;;;7.01;100.00;96253.91;5098824;28;19938;-87
2023/04/18 05:10:58;;;;;;;;;;;;;;;7.02;100.00;96261.75;5103247;28;19938;-88
2023/04/18 05:13:25;;;;;;;;;;;;;;;7.03;100.00;96254.53;5102369;28;19931;-86
2023/04/18 05:15:53;;;;;;;;;;;;;;;6.99;100.00;96261.34;5102155;28;19928;-86
2023/04/18 05:18:20;;;;;;;;;;;;;;;6.99;100.00;96264.84;5101588;28;19932;-86
2023/04/18 05:20:46;;;;;;;;;;;;;;;6.98;100.00;96262.38;5099935;28;19924;-87
2023/04/18 05:23:13;;;;;;;;;;;;;;;6.95;100.00;96263.63;5102357;28;19924;-85
2023/04/18 05:25:40;;;;;;;;;;;;;;;6.91;100.00;96262.38;5103995;28;19938;-87
2023/04/18 05:28:08;;;;;;;;;;;;;;;6.95;100.00;96265.50;5095225;28;20013;-86
2023/04/18 05:30:35;;;;;;;;;;;;;;;6.94;100.00;96269.22;5101521;28;19938;-88
2023/04/18 05:33:03;;;;;;;;;;;;;;;6.83;100.00;96262.63;5099234;28;19935;-86
2023/04/18 05:35:30;;;;;;;;;;;;;;;6.84;100.00;96267.78;5115742;27;19924;-86
2023/04/18 05:37:57;;;;;;;;;;;;;;;6.89;100.00;96264.44;5104029;28;19938;-86
2023/04/18 05:40:24;;;;;;;;;;;;;;;6.92;100.00;96264.03;5105066;28;19953;-87
2023/04/18 05:42:51;;;;;;;;;;;;;;;6.91;100.00;96272.31;5104364;28;19924;-87
2023/04/18 05:45:18;;;;;;;;;;;;;;;6.87;100.00;96276.44;5101241;28;19928;-85
2023/04/18 05:47:47;;;;;;;;;;;;;;;6.89;100.00;96274.38;5107595;28;19980;-86
2023/04/18 05:50:15;;;;;;;;;;;;;;;6.88;100.00;96278.09;5103111;28;19958;-87
2023/04/18 05:52:42;;;;;;;;;;;;;;;6.83;100.00;96276.84;5105081;28;19932;-86
2023/04/18 05:55:09;;;;;;;;;;;;;;;6.84;100.00;96275.00;5103509;28;19935;-87
2023/04/18 05:57:36;;;;;;;;;;;;;;;6.85;100.00;96279.34;5108057;28;19934;-86
2023/04/18 06:00:04;;;;;;;;;;;;;;;6.88;100.00;96272.75;5105835;28;19930;-86
2023/04/18 06:02:39;;;;;;;;;;;;;;;6.91;100.00;96283.03;5107824;28;19924;-86
2023/04/18 06:05:06;;;;;;;;;;;;;;;6.93;100.00;96283.66;5102018;27;20022;-85
2023/04/18 06:07:34;;;;;;;;;;;;;;;6.92;100.00;96284.69;5104695;28;19962;-86
2023/04/18 06:10:01;;;;;;;;;;;;;;;6.84;100.00;96283.06;5119576;27;19935;-86
2023/04/18 06:12:28;;;;;;;;;;;;;;;6.80;100.00;96287.19;5102885;28;19973;-86
2023/04/18 06:14:55;;;;;;;;;;;;;;;6.77;100.00;96288.44;5122688;27;19936;-86
2023/04/18 06:17:21;;;;;;;;;;;;;;;6.73;100.00;96287.19;5103939;28;19931;-86
2023/04/18 06:19:48;;;;;;;;;;;;;;;6.71;100.00;96294.66;5107904;28;19928;-86
2023/04/18 06:22:15;;;;;;;;;;;;;;;6.72;100.00;96290.91;5104472;28;19931;-87
2023/04/18 06:24:43;;;;;;;;;;;;;;;6.76;100.00;96297.50;5102677;28;19924;-86
2023/04/18 06:27:10;;;;;;;;;;;;;;;6.76;100.00;96299.38;5101109;28;20050;-87
2023/04/18 06:29:37;;;;;;;;;;;;;;;6.75;100.00;96290.50;5107367;28;19932;-87
2023/04/18 06:32:04;;;;;;;;;;;;;;;6.79;100.00;96285.53;5104088;28;19935;-86
2023/04/18 06:34:31;;;;;;;;;;;;;;;6.80;100.00;96288.00;5106203;28;20026;-87
2023/04/18 06:36:59;;;;;;;;;;;;;;;6.86;100.00;96283.69;5103191;28;19939;-87
2023/04/18 06:39:26;;;;;;;;;;;;;;;6.94;100.00;96286.16;5105160;27;19931;-86
2023/04/18 06:41:54;;;;;;;;;;;;;;;6.96;100.00;96283.25;5103090;28;19999;-87
2023/04/18 06:44:28;;;;;;;;;;;;;;;6.96;100.00;96285.94;5105267;28;19966;-86
2023/04/18 06:46:55;;;;;;;;;;;;;;;6.98;100.00;96289.22;5101801;28;19935;-86
2023/04/18 06:49:21;;;;;;;;;;;;;;;7.00;100.00;96281.78;5101143;28;20064;-86
2023/04/18 06:51:48;;;;;;;;;;;;;;;7.06;100.00;96287.13;5102941;28;20018;-86
2023/04/18 06:54:15;;;;;;;;;;;;;;;7.08;100.00;96290.44;5097177;28;19932;-85
2023/04/18 06:56:42;;;;;;;;;;;;;;;7.14;100.00;96278.88;5107317;28;19972;-85
2023/04/18 06:59:10;;;;;;;;;;;;;;;7.18;100.00;96287.31;5107125;28;20022;-86
2023/04/18 07:01:40;;;;;;;;;;;;;;;7.23;100.00;96279.44;5102060;28;19997;-86
2023/04/18 07:04:06;;;;;;;;;;;;;;;7.28;100.00;96278.84;5116652;27;19924;-85
2023/04/18 07:06:37;;;;;;;;;;;;;;;7.30;100.00;96277.59;5108310;28;19959;-86
2023/04/18 07:09:04;;;;;;;;;;;;;;;7.37;100.00;96283.75;5107468;28;19936;-86
2023/04/18 07:11:30;;;;;;;;;;;;;;;7.42;100.00;96275.06;5111310;28;19923;-85
2023/04/18 07:13:57;;;;;;;;;;;;;;;7.50;100.00;96275.66;5108240;28;19924;-86
2023/04/18 07:16:25;;;;;;;;;;;;;;;7.55;100.00;96275.03;5103974;28;19924;-85
2023/04/18 07:18:52;;;;;;;;;;;;;;;7.55;100.00;96265.09;5104891;28;19955;-86
2023/04/18 07:21:19;;;;;;;;;;;;;;;7.55;100.00;96270.47;5107616;28;19938;-85
2023/04/18 07:23:46;;;;;;;;;;;;;;;7.58;100.00;96259.28;5110925;28;19924;-85
2023/04/18 07:26:13;;;;;;;;;;;;;;;7.60;100.00;96265.28;5111476;28;19923;-85
2023/04/18 07:28:40;;;;;;;;;;;;;;;7.67;100.00;96261.72;5112040;28;19924;-86
2023/04/18 07:31:10;;;;;;;;;;;;;;;7.71;100.00;96257.59;5108923;28;20020;-86
2023/04/18 07:33:38;;;;;;;;;;;;;;;7.72;100.00;96261.94;5102210;28;19930;-85
2023/04/18 07:36:06;;;;;;;;;;;;;;;7.71;100.00;96257.59;5108201;28;20022;-86
2023/04/18 07:38:34;;;;;;;;;;;;;;;7.71;100.00;96265.66;5105656;28;19924;-86
2023/04/18 07:41:01;;;;;;;;;;;;;;;7.72;100.00;96265.44;5111903;28;19929;-85
2023/04/18 07:43:28;;;;;;;;;;;;;;;7.75;100.00;96264.16;5107910;28;19928;-85
2023/04/18 07:45:55;;;;;;;;;;;;;;;7.76;100.00;96266.66;5105355;28;19932;-86
2023/04/18 07:48:21;;;;;;;;;;;;;;;7.83;100.00;96253.16;5106991;28;19924;-86
2023/04/18 07:50:50;;;;;;;;;;;;;;;7.92;100.00;96257.25;5105979;28;19959;-85
2023/04/18 07:53:17;;;;;;;;;;;;;;;8.15;100.00;96264.78;5111053;28;19924;-85
2023/04/18 07:55:43;;;;;;;;;;;;;;;8.60;100.00;96270.88;5101491;28;20497;-85
2023/04/18 07:58:10;;;;;;;;;;;;;;;9.05;100.00;96261.56;5092389;28;19985;-85
2023/04/18 08:00:37;;;;;;;;;;;;;;;9.42;100.00;96275.88;5099367;28;19924;-85
2023/04/18 08:03:08;;;;;;;;;;;;;;;9.79;100.00;96268.56;5101278;28;19964;-85
2023/04/18 08:05:36;;;;;;;;;;;;;;;10.02;100.00;96278.66;5119348;27;19948;-85
2023/04/18 08:08:05;;;;;;;;;;;;;;;10.35;100.00;96277.41;5108780;28;19955;-85
2023/04/18 08:10:32;;;;;;;;;;;;;;;10.56;100.00;96279.53;5106181;28;20000;-85
2023/04/18 08:12:58;;;;;;;;;;;;;;;10.83;100.00;96279.94;5099642;28;19951;-85
2023/04/18 08:15:26;;;;;;;;;;;;;;;11.15;100.00;96273.13;5104637;28;20026;-85
2023/04/18 08:17:53;;;;;;;;;;;;;;;11.48;100.00;96269.03;5099169;28;19964;-85
2023/04/18 08:20:21;;;;;;;;;;;;;;;11.73;100.00;96270.38;5103875;27;19957;-85
2023/04/18 08:22:47;;;;;;;;;;;;;;;12.02;100.00;96268.53;5104549;28;19951;-85
2023/04/18 08:25:19;;;;;;;;;;;;;;;12.25;100.00;96266.81;5103107;28;19951;-85
2023/04/18 08:27:46;;;;;;;;;;;;;;;12.46;93.72;96272.34;5095317;28;20080;-85
2023/04/18 08:30:13;;;;;;;;;;;;;;;12.56;91.56;96268.16;5105299;28;19955;-85
2023/04/18 08:32:40;;;;;;;;;;;;;;;12.57;89.90;96273.34;5109598;28;20034;-85
2023/04/18 08:35:07;;;;;;;;;;;;;;;12.40;92.82;96267.09;5101518;28;20037;-85
2023/04/18 08:37:35;;;;;;;;;;;;;;;12.38;98.09;96271.91;5100500;28;19967;-85
2023/04/18 08:40:02;;;;;;;;;;;;;;;12.25;99.85;96259.47;5106649;28;19955;-85
2023/04/18 08:42:32;;;;;;;;;;;;;;;12.46;96.80;96263.38;5113897;28;19928;-85
2023/04/18 08:44:58;;;;;;;;;;;;;;;12.67;95.41;96262.69;5112933;28;19951;-85
2023/04/18 08:47:25;;;;;;;;;;;;;;;12.87;93.36;96254.06;5105707;28;19993;-85
2023/04/18 08:49:52;;;;;;;;;;;;;;;12.96;91.42;96262.59;5098880;28;19957;-83
2023/04/18 08:52:20;;;;;;;;;;;;;;;13.08;88.38;96256.03;5103651;28;19946;-83
2023/04/18 08:54:47;;;;;;;;;;;;;;;13.13;89.34;96258.84;5114358;28;19945;-83
2023/04/18 08:57:16;;;;;;;;;;;;;;;13.27;89.90;96263.94;5106423;28;19981;-83
2023/04/18 08:59:45;;;;;;;;;;;;;;;13.23;90.27;96258.16;5100880;28;19947;-83
2023/04/18 09:02:12;;;;;;;;;;;;;;;13.42;89.00;96256.81;5101579;28;19985;-83
2023/04/18 09:04:39;;;;;;;;;;;;;;;13.67;84.25;96253.63;5122743;27;19971;-83
2023/04/18 09:07:07;;;;;;;;;;;;;;;13.74;82.65;96262.41;5098972;28;19950;-81
2023/04/18 09:09:45;;;;;;;;;;;;;;;13.73;82.97;96251.78;5104179;28;19952;-82
2023/04/18 09:12:13;;;;;;;;;;;;;;;13.84;83.82;96253.56;5116573;27;19961;-83
2023/04/18 09:14:43;;;;;;;;;;;;;;;13.93;82.19;96247.44;5112180;28;19973;-84
2023/04/18 09:17:13;;;;;;;;;;;;;;;13.87;83.14;96244.91;5114318;28;19947;-85
2023/04/18 09:19:45;;;;;;;;;;;;;;;13.95;84.55;96241.75;5108468;28;19955;-85
2023/04/18 09:22:13;;;;;;;;;;;;;;;13.96;84.05;96246.09;5106004;28;20212;-84
2023/04/18 09:24:39;;;;;;;;;;;;;;;14.20;81.91;96247.47;5111047;28;19952;-84
2023/04/18 09:27:13;;;;;;;;;;;;;;;14.28;81.86;96244.28;5106475;28;19951;-84
2023/04/18 09:29:45;;;;;;;;;;;;;;;14.38;80.68;96246.28;5113016;28;19953;-84
2023/04/18 09:32:19;;;;;;;;;;;;;;;14.24;82.02;96242.34;5112897;28;19961;-84
2023/04/18 09:34:46;;;;;;;;;;;;;;;14.09;83.87;96240.28;5108004;28;19950;-84
2023/04/18 09:37:14;;;;;;;;;;;;;;;14.26;81.14;96241.00;5126183;27;19950;-84
2023/04/18 09:39:42;;;;;;;;;;;;;;;14.28;80.10;96244.28;5111724;28;20070;-84
2023/04/18 09:42:10;;;;;;;;;;;;;;;14.20;78.89;96242.03;5112745;27;20249;-84
2023/04/18 09:44:36;;;;;;;;;;;;;;;14.28;80.23;96241.59;5108307;28;19955;-83
2023/04/18 09:47:03;;;;;;;;;;;;;;;14.43;78.10;96238.22;5107298;28;20023;-84
2023/04/18 09:49:32;;;;;;;;;;;;;;;14.63;75.63;96235.66;5111955;28;20003;-85
2023/04/18 09:51:59;;;;;;;;;;;;;;;14.60;73.29;96246.25;5105776;28;19953;-85
2023/04/18 09:54:30;;;;;;;;;;;;;;;14.51;76.92;96236.94;5108787;28;19947;-85
2023/04/18 09:56:58;;;;;;;;;;;;;;;14.62;77.13;96235.94;5098998;28;19951;-85
2023/04/18 09:59:33;;;;;;;;;;;;;;;14.73;76.00;96232.22;5112275;28;19964;-85
2023/04/18 10:02:02;;;;;;;;;;;;;;;14.60;76.60;96236.22;5103537;28;19951;-85
2023/04/18 10:04:29;;;;;;;;;;;;;;;14.55;76.07;96236.16;5105135;28;19958;-85
2023/04/18 10:06:58;;;;;;;;;;;;;;;14.67;75.92;96231.38;5108917;28;19951;-85
2023/04/18 10:09:25;;;;;;;;;;;;;;;14.70;76.99;96235.47;5104604;28;20042;-85
2023/04/18 10:11:52;;;;;;;;;;;;;;;14.77;76.91;96231.47;5105229;28;19997;-85
2023/04/18 10:14:20;;;;;;;;;;;;;;;14.88;78.37;96231.56;5110005;28;19969;-85
2023/04/18 10:16:47;;;;;;;;;;;;;;;14.95;75.08;96230.25;5109658;28;19950;-85
2023/04/18 10:19:23;;;;;;;;;;;;;;;14.75;77.92;96224.63;5099647;28;20020;-86
2023/04/18 10:21:58;;;;;;;;;;;;;;;15.00;77.30;96218.56;5107307;28;19953;-85
2023/04/18 10:24:43;;;;;;;;;;;;;;;15.01;73.17;96222.94;5106392;28;19945;-85
2023/04/18 10:27:10;;;;;;;;;;;;;;;15.11;73.10;96220.28;5099532;28;19950;-84
2023/04/18 10:29:46;;;;;;;;;;;;;;;15.30;74.10;96217.97;5106752;27;19953;-85
2023/04/18 10:32:13;;;;;;;;;;;;;;;15.50;72.66;96218.88;5106199;28;19954;-85
2023/04/18 10:34:40;;;;;;;;;;;;;;;15.59;71.05;96213.78;5107220;28;19961;-85
2023/04/18 10:37:08;;;;;;;;;;;;;;;15.39;70.84;96211.78;5109423;28;19947;-85
2023/04/18 10:39:49;;;;;;;;;;;;;;;15.49;70.93;96206.34;5107827;28;19972;-85
2023/04/18 10:42:16;;;;;;;;;;;;;;;15.65;71.97;96210.00;5109993;28;19948;-85
2023/04/18 10:44:42;;;;;;;;;;;;;;;15.64;73.07;96210.28;5111938;28;19957;-85
2023/04/18 10:47:20;;;;;;;;;;;;;;;15.60;72.68;96210.00;5109205;28;19954;-86
2023/04/18 10:49:55;;;;;;;;;;;;;;;15.62;70.75;96194.22;5110050;28;19950;-85
2023/04/18 10:52:24;;;;;;;;;;;;;;;15.56;69.80;96205.34;5102252;28;19996;-85
2023/04/18 10:54:53;;;;;;;;;;;;;;;15.58;70.24;96203.16;5100400;28;20089;-85
2023/04/18 10:57:20;;;;;;;;;;;;;;;15.64;70.95;96192.06;5109296;28;19948;-89
2023/04/18 10:59:49;;;;;;;;;;;;;;;15.88;69.86;96192.41;5110364;28;19970;-85
2023/04/18 11:02:23;;;;;;;;;;;;;;;15.96;70.36;96194.63;5107446;28;19947;-85
2023/04/18 11:04:50;;;;;;;;;;;;;;;16.02;68.66;96192.72;5103743;28;19987;-84
2023/04/18 11:07:17;;;;;;;;;;;;;;;16.17;69.98;96190.03;5101419;28;19953;-86
2023/04/18 11:09:53;;;;;;;;;;;;;;;16.31;69.05;96188.44;5100087;28;19954;-89
2023/04/18 11:12:21;;;;;;;;;;;;;;;16.56;68.43;96177.56;5108083;28;19968;-87
2023/04/18 11:14:48;;;;;;;;;;;;;;;16.72;68.04;96183.03;5107927;28;19989;-85
2023/04/18 11:17:15;;;;;;;;;;;;;;;16.78;67.55;96190.94;5105908;28;19952;-85
2023/04/18 11:19:43;;;;;;;;;;;;;;;16.80;66.17;96177.84;5104735;28;19968;-86
2023/04/18 11:22:10;;;;;;;;;;;;;;;16.80;65.61;96183.31;5103716;28;19957;-86
2023/04/18 11:24:37;;;;;;;;;;;;;;;16.88;65.98;96173.75;5100997;28;19995;-85
2023/04/18 11:27:05;;;;;;;;;;;;;;;16.79;65.46;96175.38;5109598;28;20016;-86
2023/04/18 11:29:32;;;;;;;;;;;;;;;16.74;65.39;96178.13;5097812;28;20000;-85
2023/04/18 11:31:59;;;;;;;;;;;;;;;17.08;67.16;96178.38;5099052;28;19957;-86
2023/04/18 11:34:29;;;;;;;;;;;;;;;17.06;66.45;96173.19;5104942;28;19977;-85
2023/04/18 11:36:56;;;;;;;;;;;;;;;16.93;66.41;96171.00;5107748;28;19962;-85
2023/04/18 11:39:25;;;;;;;;;;;;;;;16.68;66.80;96181.94;5104153;28;20051;-85
2023/04/18 11:41:55;;;;;;;;;;;;;;;16.72;68.66;96180.31;5102302;28;19961;-85
2023/04/18 11:44:24;;;;;;;;;;;;;;;16.56;68.13;96177.56;5097697;28;19950;-85
2023/04/18 11:46:51;;;;;;;;;;;;;;;16.44;68.36;96187.06;5101769;28;19949;-86
2023/04/18 11:49:25;;;;;;;;;;;;;;;16.31;67.62;96185.72;5105691;28;19963;-86
2023/04/18 11:51:52;;;;;;;;;;;;;;;16.14;70.26;96182.41;5108748;28;20025;-86
2023/04/18 11:54:38;;;;;;;;;;;;;;;16.23;72.89;96178.88;5111736;28;19948;-85
2023/04/18 11:57:05;;;;;;;;;;;;;;;16.31;72.04;96180.25;5106661;28;19944;-85
2023/04/18 11:59:35;;;;;;;;;;;;;;;16.39;71.77;96177.00;5104043;28;19964;-85
2023/04/18 12:02:03;;;;;;;;;;;;;;;16.49;72.30;96182.47;5108871;28;19995;-85
2023/04/18 12:04:30;;;;;;;;;;;;;;;16.72;71.90;96180.31;5100661;28;19951;-86
2023/04/18 12:06:57;;;;;;;;;;;;;;;16.98;69.52;96169.09;5099202;28;19965;-85
2023/04/18 12:09:24;;;;;;;;;;;;;;;17.35;71.61;96173.41;5104608;28;19951;-86
2023/04/18 12:11:59;;;;;;;;;;;;;;;17.70;68.05;96176.03;5107605;28;19956;-86
2023/04/18 12:14:26;;;;;;;;;;;;;;;17.63;66.46;96180.16;5107594;28;19978;-85
2023/04/18 12:16:55;;;;;;;;;;;;;;;17.56;66.43;96174.16;5104543;28;20046;-86
2023/04/18 12:19:26;;;;;;;;;;;;;;;17.58;65.51;96182.88;5101619;28;19960;-86
2023/04/18 12:21:59;;;;;;;;;;;;;;;17.55;66.16;96177.97;5108699;28;19964;-85
2023/04/18 12:24:27;;;;;;;;;;;;;;;17.83;68.54;96185.53;5111450;27;19949;-86
2023/04/18 12:26:54;;;;;;;;;;;;;;;18.02;68.06;96183.81;5105599;28;19996;-85
2023/04/18 12:29:21;;;;;;;;;;;;;;;18.10;66.85;96183.22;5108404;28;19985;-85
2023/04/18 12:31:49;;;;;;;;;;;;;;;17.99;65.59;96183.56;5105172;28;20086;-85
2023/04/18 12:34:17;;;;;;;;;;;;;;;17.85;65.89;96174.34;5103469;28;19949;-85
2023/04/18 12:36:44;;;;;;;;;;;;;;;17.90;66.48;96185.22;5096842;28;19975;-85
2023/04/18 12:39:11;;;;;;;;;;;;;;;17.83;67.45;96182.81;5109213;28;19967;-85
2023/04/18 12:41:37;;;;;;;;;;;;;;;17.80;66.37;96175.16;5107712;28;20033;-85
2023/04/18 12:44:05;;;;;;;;;;;;;;;17.98;65.73;96185.47;5106288;28;20066;-85
2023/04/18 12:46:32;;;;;;;;;;;;;;;18.18;64.15;96183.72;5101770;28;19951;-85
2023/04/18 12:48:59;;;;;;;;;;;;;;;18.34;63.42;96174.34;5108452;28;19957;-84
2023/04/18 12:51:27;;;;;;;;;;;;;;;18.18;65.61;96175.53;5114105;28;20046;-85
2023/04/18 12:53:55;;;;;;;;;;;;;;;18.04;65.52;96176.13;5107361;28;20090;-85